2 км

Карта отелей и гостиниц, располагающихся рядом с аэропортом 2 км :

2 км Томская область 60° 44' 32.1" N, 77° 32' 0.8412" E
2 км Томская область 60° 44' 32.1" N, 77° 32' 0.8412" E
Код аэродрома ИКАО
HB6B
Код аэродрома RU
ХБ6Б
Координаты
N60.74225° E077.53357°
Превышение над уровнем моря
44
Основная полоса
Курс магнитный
Длина основной ВПП
30
Ширина основной ВПП
30
Покрытие основной ВПП
Твёрдое
Освещение ВПП
Нет
Тип: 
Вертодром
Класс аэродрома: 
Принадлежность: 
ГА
Статус: 
Действующий
Сайт: 
E-mail аэродрома: 
Страна: 
Россия
Регион: 
Томская область
Город: 
Дополнительная информация: 
Маркирована. Оборудована ветроуказателем.

Найти трансфер

С помощью этой формы Вы можете найти трансфер из аэропорта 2 км в город, аэропорт или вокзал:

Карта места

Javascript is required to view this map.

Погода в аэропортах:

Авиационная погода в аэропорту Международный

Регион: 
Погода METAR: 
UKLL 251830Z 28008MPS 9000 -SHSN BKN007 BKN023CB M00/M01 Q0996 R31/620236 NOSIG
Время наблюдения
2021-01-25T18:30:00Z
Температура C
0.0
Точка росы
-1.0
Направление ветра
280
Скорость ветра (узлы)
16
Метео видимость
5.59
Явления погоды
-SHSN
Условия полета
IFR
Аэропорт подробнее: 

Авиационная погода в Нижневартовске

Регион: 
Погода METAR: 
USNN 251830Z 13005MPS 3700 1200NE FU NSC M40/M44 Q1038 R03/410265 NOSIG RMK QFE774
Время наблюдения
2021-01-25T18:30:00Z
Температура C
-40.0
Точка росы
-44.0
Направление ветра
130
Скорость ветра (узлы)
10
Метео видимость
2.3
Явления погоды
FU
Условия полета
IFR
Аэропорт подробнее: 

Авиационная погода в Нальчике

Регион: 
Погода METAR: 
URMN 251900Z 00000MPS 0300 R24/0350 FZFG VV001 M04/M04 Q1014 R24/////// NOSIG RMK QBB040 MT OBSC OBST OBSC QFE724
Время наблюдения
2021-01-25T19:00:00Z
Температура C
-4.0
Точка росы
-4.0
Направление ветра
0
Скорость ветра (узлы)
0
Метео видимость
0.19
Явления погоды
FZFG
Условия полета
LIFR
Аэропорт подробнее: 

Авиационная погода в Караганде

Регион: 
Погода METAR: 
UAKK 251830Z 25009MPS 3000 SN DRSN OVC012 M12/M15 Q1030 R23/820555 NOSIG RMK QFE725/0967
Время наблюдения
2021-01-25T18:30:00Z
Температура C
-12.0
Точка росы
-15.0
Направление ветра
250
Скорость ветра (узлы)
17
Метео видимость
1.86
Явления погоды
SN DRSN
Условия полета
IFR
Аэропорт подробнее: